sensor_id;sensor_type;location;lat;lon;timestamp;P1;durP1;ratioP1;P2;durP2;ratioP2
15679;SDS011;15488;48.114;11.532;2024-03-06T00:02:26;12.20;;;7.80;;
15679;SDS011;15488;48.114;11.532;2024-03-06T00:04:53;10.67;;;7.70;;
15679;SDS011;15488;48.114;11.532;2024-03-06T00:07:21;9.97;;;7.70;;
15679;SDS011;15488;48.114;11.532;2024-03-06T00:09:48;10.57;;;7.60;;
15679;SDS011;15488;48.114;11.532;2024-03-06T00:12:16;12.33;;;8.20;;
15679;SDS011;15488;48.114;11.532;2024-03-06T00:14:43;10.07;;;7.37;;
15679;SDS011;15488;48.114;11.532;2024-03-06T00:17:11;11.33;;;8.27;;
15679;SDS011;15488;48.114;11.532;2024-03-06T00:19:40;10.77;;;7.77;;
15679;SDS011;15488;48.114;11.532;2024-03-06T00:22:09;12.40;;;8.40;;
15679;SDS011;15488;48.114;11.532;2024-03-06T00:24:37;9.40;;;7.33;;
15679;SDS011;15488;48.114;11.532;2024-03-06T00:27:04;10.63;;;8.17;;
15679;SDS011;15488;48.114;11.532;2024-03-06T00:29:32;10.70;;;7.30;;
15679;SDS011;15488;48.114;11.532;2024-03-06T00:32:03;10.33;;;7.53;;
15679;SDS011;15488;48.114;11.532;2024-03-06T00:34:31;10.23;;;7.50;;
15679;SDS011;15488;48.114;11.532;2024-03-06T00:36:59;10.57;;;8.07;;
15679;SDS011;15488;48.114;11.532;2024-03-06T00:39:28;11.37;;;7.90;;
15679;SDS011;15488;48.114;11.532;2024-03-06T00:41:55;11.43;;;8.50;;
15679;SDS011;15488;48.114;11.532;2024-03-06T00:44:23;10.47;;;7.70;;
15679;SDS011;15488;48.114;11.532;2024-03-06T00:46:50;9.47;;;7.20;;
15679;SDS011;15488;48.114;11.532;2024-03-06T00:49:18;11.67;;;8.50;;
15679;SDS011;15488;48.114;11.532;2024-03-06T00:51:45;10.70;;;7.83;;
15679;SDS011;15488;48.114;11.532;2024-03-06T00:54:14;9.90;;;7.40;;
15679;SDS011;15488;48.114;11.532;2024-03-06T00:56:42;10.90;;;7.70;;
15679;SDS011;15488;48.114;11.532;2024-03-06T00:59:10;9.57;;;7.33;;
15679;SDS011;15488;48.114;11.532;2024-03-06T01:01:38;10.93;;;7.37;;
15679;SDS011;15488;48.114;11.532;2024-03-06T01:04:06;8.23;;;6.40;;
15679;SDS011;15488;48.114;11.532;2024-03-06T01:06:33;9.40;;;7.30;;
15679;SDS011;15488;48.114;11.532;2024-03-06T01:09:01;8.47;;;6.77;;
15679;SDS011;15488;48.114;11.532;2024-03-06T01:11:30;9.93;;;7.37;;
15679;SDS011;15488;48.114;11.532;2024-03-06T01:13:58;10.97;;;7.43;;
15679;SDS011;15488;48.114;11.532;2024-03-06T01:16:25;9.43;;;6.73;;
15679;SDS011;15488;48.114;11.532;2024-03-06T01:18:53;8.83;;;6.53;;
15679;SDS011;15488;48.114;11.532;2024-03-06T01:21:20;9.40;;;6.97;;
15679;SDS011;15488;48.114;11.532;2024-03-06T01:23:48;9.47;;;6.87;;
15679;SDS011;15488;48.114;11.532;2024-03-06T01:26:15;9.20;;;6.67;;
15679;SDS011;15488;48.114;11.532;2024-03-06T01:28:44;9.90;;;6.93;;
15679;SDS011;15488;48.114;11.532;2024-03-06T01:31:12;8.83;;;6.20;;
15679;SDS011;15488;48.114;11.532;2024-03-06T01:33:40;9.17;;;6.90;;
15679;SDS011;15488;48.114;11.532;2024-03-06T01:36:07;9.00;;;6.40;;
15679;SDS011;15488;48.114;11.532;2024-03-06T01:38:35;8.77;;;6.80;;
15679;SDS011;15488;48.114;11.532;2024-03-06T01:41:02;8.80;;;6.77;;
15679;SDS011;15488;48.114;11.532;2024-03-06T01:43:36;9.27;;;6.90;;
15679;SDS011;15488;48.114;11.532;2024-03-06T01:46:06;9.40;;;6.77;;
15679;SDS011;15488;48.114;11.532;2024-03-06T01:48:33;9.73;;;7.43;;
15679;SDS011;15488;48.114;11.532;2024-03-06T01:51:02;8.63;;;6.77;;
15679;SDS011;15488;48.114;11.532;2024-03-06T01:53:31;8.93;;;7.00;;
15679;SDS011;15488;48.114;11.532;2024-03-06T01:55:59;9.80;;;7.03;;
15679;SDS011;15488;48.114;11.532;2024-03-06T01:58:30;10.53;;;7.73;;
15679;SDS011;15488;48.114;11.532;2024-03-06T02:01:00;9.70;;;7.43;;
15679;SDS011;15488;48.114;11.532;2024-03-06T02:03:30;9.83;;;7.47;;
15679;SDS011;15488;48.114;11.532;2024-03-06T02:05:59;9.90;;;7.23;;
15679;SDS011;15488;48.114;11.532;2024-03-06T02:08:28;10.30;;;7.37;;
15679;SDS011;15488;48.114;11.532;2024-03-06T02:10:56;11.47;;;7.90;;
15679;SDS011;15488;48.114;11.532;2024-03-06T02:13:25;10.83;;;7.97;;
15679;SDS011;15488;48.114;11.532;2024-03-06T02:15:53;10.80;;;7.93;;
15679;SDS011;15488;48.114;11.532;2024-03-06T02:18:20;10.13;;;7.57;;
15679;SDS011;15488;48.114;11.532;2024-03-06T02:20:49;11.63;;;8.47;;
15679;SDS011;15488;48.114;11.532;2024-03-06T02:23:17;10.77;;;7.80;;
15679;SDS011;15488;48.114;11.532;2024-03-06T02:25:46;11.80;;;7.80;;
15679;SDS011;15488;48.114;11.532;2024-03-06T02:28:13;11.47;;;8.07;;
15679;SDS011;15488;48.114;11.532;2024-03-06T02:30:42;11.33;;;8.17;;
15679;SDS011;15488;48.114;11.532;2024-03-06T02:33:09;11.43;;;7.77;;
15679;SDS011;15488;48.114;11.532;2024-03-06T02:35:37;12.60;;;8.13;;
15679;SDS011;15488;48.114;11.532;2024-03-06T02:38:06;12.47;;;8.50;;
15679;SDS011;15488;48.114;11.532;2024-03-06T02:40:34;13.50;;;8.73;;
15679;SDS011;15488;48.114;11.532;2024-03-06T02:43:02;12.70;;;8.57;;
15679;SDS011;15488;48.114;11.532;2024-03-06T02:45:30;12.93;;;8.70;;
15679;SDS011;15488;48.114;11.532;2024-03-06T02:47:57;13.67;;;9.40;;
15679;SDS011;15488;48.114;11.532;2024-03-06T02:50:25;13.57;;;8.93;;
15679;SDS011;15488;48.114;11.532;2024-03-06T02:52:52;14.60;;;9.27;;
15679;SDS011;15488;48.114;11.532;2024-03-06T02:55:22;14.63;;;9.77;;
15679;SDS011;15488;48.114;11.532;2024-03-06T02:57:49;13.00;;;8.23;;
15679;SDS011;15488;48.114;11.532;2024-03-06T03:00:17;9.00;;;6.20;;
15679;SDS011;15488;48.114;11.532;2024-03-06T03:02:45;5.23;;;3.93;;
15679;SDS011;15488;48.114;11.532;2024-03-06T03:05:13;2.40;;;1.93;;
15679;SDS011;15488;48.114;11.532;2024-03-06T03:07:41;1.50;;;1.40;;
15679;SDS011;15488;48.114;11.532;2024-03-06T03:10:08;1.50;;;1.40;;
15679;SDS011;15488;48.114;11.532;2024-03-06T03:12:39;1.60;;;1.33;;
15679;SDS011;15488;48.114;11.532;2024-03-06T03:15:07;1.30;;;1.20;;
15679;SDS011;15488;48.114;11.532;2024-03-06T03:17:35;1.33;;;1.20;;
15679;SDS011;15488;48.114;11.532;2024-03-06T03:20:03;2.23;;;1.40;;
15679;SDS011;15488;48.114;11.532;2024-03-06T03:22:35;1.37;;;1.00;;
15679;SDS011;15488;48.114;11.532;2024-03-06T03:25:03;1.20;;;1.10;;
15679;SDS011;15488;48.114;11.532;2024-03-06T03:27:33;1.03;;;0.93;;
15679;SDS011;15488;48.114;11.532;2024-03-06T03:30:04;0.90;;;0.90;;
15679;SDS011;15488;48.114;11.532;2024-03-06T03:32:35;1.07;;;0.90;;
15679;SDS011;15488;48.114;11.532;2024-03-06T03:35:03;1.20;;;1.10;;
15679;SDS011;15488;48.114;11.532;2024-03-06T03:37:31;0.90;;;0.90;;
15679;SDS011;15488;48.114;11.532;2024-03-06T03:39:59;1.03;;;0.90;;
15679;SDS011;15488;48.114;11.532;2024-03-06T03:42:27;1.23;;;1.10;;
15679;SDS011;15488;48.114;11.532;2024-03-06T03:44:55;0.93;;;0.87;;
15679;SDS011;15488;48.114;11.532;2024-03-06T03:47:24;1.10;;;1.00;;
15679;SDS011;15488;48.114;11.532;2024-03-06T03:49:51;1.23;;;0.90;;
15679;SDS011;15488;48.114;11.532;2024-03-06T03:52:19;1.33;;;1.13;;
15679;SDS011;15488;48.114;11.532;2024-03-06T03:54:46;1.77;;;1.20;;
15679;SDS011;15488;48.114;11.532;2024-03-06T03:57:14;1.13;;;1.03;;
15679;SDS011;15488;48.114;11.532;2024-03-06T03:59:42;1.10;;;1.00;;
15679;SDS011;15488;48.114;11.532;2024-03-06T04:02:10;1.43;;;1.30;;
15679;SDS011;15488;48.114;11.532;2024-03-06T04:04:38;1.43;;;1.20;;
15679;SDS011;15488;48.114;11.532;2024-03-06T04:07:06;1.20;;;1.10;;
15679;SDS011;15488;48.114;11.532;2024-03-06T04:09:34;1.33;;;1.10;;
15679;SDS011;15488;48.114;11.532;2024-03-06T04:12:02;1.27;;;1.17;;
15679;SDS011;15488;48.114;11.532;2024-03-06T04:14:30;1.20;;;1.03;;
15679;SDS011;15488;48.114;11.532;2024-03-06T04:16:57;0.87;;;0.87;;
15679;SDS011;15488;48.114;11.532;2024-03-06T04:19:25;1.17;;;1.07;;
15679;SDS011;15488;48.114;11.532;2024-03-06T04:21:54;1.20;;;1.10;;
15679;SDS011;15488;48.114;11.532;2024-03-06T04:24:21;1.10;;;1.00;;
15679;SDS011;15488;48.114;11.532;2024-03-06T04:26:49;1.30;;;1.20;;
15679;SDS011;15488;48.114;11.532;2024-03-06T04:29:16;1.17;;;1.00;;
15679;SDS011;15488;48.114;11.532;2024-03-06T04:31:44;1.53;;;1.10;;
15679;SDS011;15488;48.114;11.532;2024-03-06T04:34:11;1.33;;;1.17;;
15679;SDS011;15488;48.114;11.532;2024-03-06T04:36:39;1.43;;;1.30;;
15679;SDS011;15488;48.114;11.532;2024-03-06T04:39:08;1.37;;;1.27;;
15679;SDS011;15488;48.114;11.532;2024-03-06T04:41:37;1.40;;;1.20;;
15679;SDS011;15488;48.114;11.532;2024-03-06T04:44:04;1.30;;;1.20;;
15679;SDS011;15488;48.114;11.532;2024-03-06T04:46:32;2.40;;;1.40;;
15679;SDS011;15488;48.114;11.532;2024-03-06T04:49:00;1.37;;;1.23;;
15679;SDS011;15488;48.114;11.532;2024-03-06T04:51:27;1.80;;;1.40;;
15679;SDS011;15488;48.114;11.532;2024-03-06T04:53:55;1.50;;;1.20;;
15679;SDS011;15488;48.114;11.532;2024-03-06T04:56:24;1.50;;;1.40;;
15679;SDS011;15488;48.114;11.532;2024-03-06T04:58:51;1.27;;;1.17;;
15679;SDS011;15488;48.114;11.532;2024-03-06T05:01:19;1.90;;;1.70;;
15679;SDS011;15488;48.114;11.532;2024-03-06T05:03:46;1.73;;;1.60;;
15679;SDS011;15488;48.114;11.532;2024-03-06T05:06:14;1.70;;;1.30;;
15679;SDS011;15488;48.114;11.532;2024-03-06T05:08:42;1.50;;;1.40;;
15679;SDS011;15488;48.114;11.532;2024-03-06T05:11:09;2.00;;;1.33;;
15679;SDS011;15488;48.114;11.532;2024-03-06T05:13:38;1.70;;;1.40;;
15679;SDS011;15488;48.114;11.532;2024-03-06T05:16:06;1.40;;;1.30;;
15679;SDS011;15488;48.114;11.532;2024-03-06T05:18:34;1.27;;;1.17;;
15679;SDS011;15488;48.114;11.532;2024-03-06T05:21:02;1.40;;;1.30;;
15679;SDS011;15488;48.114;11.532;2024-03-06T05:23:29;1.53;;;1.30;;
15679;SDS011;15488;48.114;11.532;2024-03-06T05:25:57;1.93;;;1.23;;
15679;SDS011;15488;48.114;11.532;2024-03-06T05:28:24;1.50;;;1.10;;
15679;SDS011;15488;48.114;11.532;2024-03-06T05:30:53;1.50;;;1.20;;
15679;SDS011;15488;48.114;11.532;2024-03-06T05:33:21;1.30;;;1.20;;
15679;SDS011;15488;48.114;11.532;2024-03-06T05:35:48;1.40;;;1.20;;
15679;SDS011;15488;48.114;11.532;2024-03-06T05:38:16;1.30;;;1.10;;
15679;SDS011;15488;48.114;11.532;2024-03-06T05:40:44;1.70;;;1.00;;
15679;SDS011;15488;48.114;11.532;2024-03-06T05:43:11;1.27;;;1.17;;
15679;SDS011;15488;48.114;11.532;2024-03-06T05:45:39;1.07;;;0.80;;
15679;SDS011;15488;48.114;11.532;2024-03-06T05:48:08;1.30;;;1.20;;
15679;SDS011;15488;48.114;11.532;2024-03-06T05:50:36;1.27;;;1.00;;
15679;SDS011;15488;48.114;11.532;2024-03-06T05:53:04;1.43;;;1.00;;
15679;SDS011;15488;48.114;11.532;2024-03-06T05:55:31;1.20;;;0.83;;
15679;SDS011;15488;48.114;11.532;2024-03-06T05:57:59;1.23;;;1.13;;
15679;SDS011;15488;48.114;11.532;2024-03-06T06:00:27;1.53;;;1.20;;
15679;SDS011;15488;48.114;11.532;2024-03-06T06:02:54;1.40;;;1.17;;
15679;SDS011;15488;48.114;11.532;2024-03-06T06:05:23;1.30;;;1.20;;
15679;SDS011;15488;48.114;11.532;2024-03-06T06:07:51;1.43;;;1.33;;
15679;SDS011;15488;48.114;11.532;2024-03-06T06:10:18;1.67;;;1.10;;
15679;SDS011;15488;48.114;11.532;2024-03-06T06:12:46;1.53;;;1.30;;
15679;SDS011;15488;48.114;11.532;2024-03-06T06:15:13;2.00;;;1.30;;
15679;SDS011;15488;48.114;11.532;2024-03-06T06:17:41;1.50;;;1.40;;
15679;SDS011;15488;48.114;11.532;2024-03-06T06:20:11;1.70;;;1.30;;
15679;SDS011;15488;48.114;11.532;2024-03-06T06:22:41;1.80;;;1.33;;
15679;SDS011;15488;48.114;11.532;2024-03-06T06:25:09;2.03;;;1.50;;
15679;SDS011;15488;48.114;11.532;2024-03-06T06:27:36;2.93;;;1.47;;
15679;SDS011;15488;48.114;11.532;2024-03-06T06:30:04;2.47;;;1.60;;
15679;SDS011;15488;48.114;11.532;2024-03-06T06:32:36;2.07;;;1.70;;
15679;SDS011;15488;48.114;11.532;2024-03-06T06:35:06;1.90;;;1.70;;
15679;SDS011;15488;48.114;11.532;2024-03-06T06:37:36;2.50;;;1.30;;
15679;SDS011;15488;48.114;11.532;2024-03-06T06:40:06;1.63;;;1.50;;
15679;SDS011;15488;48.114;11.532;2024-03-06T06:42:35;1.90;;;1.50;;
15679;SDS011;15488;48.114;11.532;2024-03-06T06:45:03;3.10;;;1.73;;
15679;SDS011;15488;48.114;11.532;2024-03-06T06:47:32;3.03;;;2.03;;
15679;SDS011;15488;48.114;11.532;2024-03-06T06:50:00;4.53;;;1.70;;
15679;SDS011;15488;48.114;11.532;2024-03-06T06:52:30;1.90;;;1.60;;
15679;SDS011;15488;48.114;11.532;2024-03-06T06:54:58;2.10;;;1.80;;
15679;SDS011;15488;48.114;11.532;2024-03-06T06:57:27;2.37;;;1.67;;
15679;SDS011;15488;48.114;11.532;2024-03-06T06:59:55;2.03;;;1.70;;
15679;SDS011;15488;48.114;11.532;2024-03-06T07:02:22;1.80;;;1.43;;
15679;SDS011;15488;48.114;11.532;2024-03-06T07:04:50;1.87;;;1.60;;
15679;SDS011;15488;48.114;11.532;2024-03-06T07:07:18;2.10;;;1.67;;
15679;SDS011;15488;48.114;11.532;2024-03-06T07:09:46;2.63;;;1.57;;
15679;SDS011;15488;48.114;11.532;2024-03-06T07:12:15;2.20;;;1.50;;
15679;SDS011;15488;48.114;11.532;2024-03-06T07:14:44;1.40;;;1.30;;
15679;SDS011;15488;48.114;11.532;2024-03-06T07:17:11;2.07;;;1.50;;
15679;SDS011;15488;48.114;11.532;2024-03-06T07:19:39;2.97;;;1.60;;
15679;SDS011;15488;48.114;11.532;2024-03-06T07:22:06;1.37;;;1.27;;
15679;SDS011;15488;48.114;11.532;2024-03-06T07:24:34;1.73;;;1.20;;
15679;SDS011;15488;48.114;11.532;2024-03-06T07:27:02;2.30;;;1.40;;
15679;SDS011;15488;48.114;11.532;2024-03-06T07:29:29;2.50;;;1.57;;
15679;SDS011;15488;48.114;11.532;2024-03-06T07:31:58;1.67;;;1.40;;
15679;SDS011;15488;48.114;11.532;2024-03-06T07:34:26;2.00;;;1.20;;
15679;SDS011;15488;48.114;11.532;2024-03-06T07:36:53;2.57;;;1.40;;
15679;SDS011;15488;48.114;11.532;2024-03-06T07:39:21;2.00;;;1.47;;
15679;SDS011;15488;48.114;11.532;2024-03-06T07:41:49;2.87;;;1.40;;
15679;SDS011;15488;48.114;11.532;2024-03-06T07:44:17;1.50;;;1.20;;
15679;SDS011;15488;48.114;11.532;2024-03-06T07:46:45;1.23;;;1.13;;
15679;SDS011;15488;48.114;11.532;2024-03-06T07:49:15;1.57;;;1.20;;
15679;SDS011;15488;48.114;11.532;2024-03-06T07:51:42;2.33;;;1.30;;
15679;SDS011;15488;48.114;11.532;2024-03-06T07:54:10;3.20;;;1.30;;
15679;SDS011;15488;48.114;11.532;2024-03-06T07:56:38;2.40;;;1.33;;
15679;SDS011;15488;48.114;11.532;2024-03-06T07:59:05;2.17;;;1.50;;
15679;SDS011;15488;48.114;11.532;2024-03-06T08:01:33;2.13;;;1.40;;
15679;SDS011;15488;48.114;11.532;2024-03-06T08:04:00;2.97;;;1.40;;
15679;SDS011;15488;48.114;11.532;2024-03-06T08:06:29;2.03;;;1.37;;
15679;SDS011;15488;48.114;11.532;2024-03-06T08:08:59;1.60;;;1.40;;
15679;SDS011;15488;48.114;11.532;2024-03-06T08:11:27;2.33;;;1.40;;
15679;SDS011;15488;48.114;11.532;2024-03-06T08:13:57;2.13;;;1.43;;
15679;SDS011;15488;48.114;11.532;2024-03-06T08:16:24;1.80;;;1.57;;
15679;SDS011;15488;48.114;11.532;2024-03-06T08:18:52;1.50;;;1.13;;
15679;SDS011;15488;48.114;11.532;2024-03-06T08:21:21;1.30;;;1.20;;
15679;SDS011;15488;48.114;11.532;2024-03-06T08:23:50;1.13;;;1.00;;
15679;SDS011;15488;48.114;11.532;2024-03-06T08:26:18;1.50;;;1.00;;
15679;SDS011;15488;48.114;11.532;2024-03-06T08:28:45;1.00;;;0.90;;
15679;SDS011;15488;48.114;11.532;2024-03-06T08:31:14;1.60;;;1.20;;
15679;SDS011;15488;48.114;11.532;2024-03-06T08:33:41;1.40;;;1.10;;
15679;SDS011;15488;48.114;11.532;2024-03-06T08:36:09;1.33;;;1.00;;
15679;SDS011;15488;48.114;11.532;2024-03-06T08:38:38;1.13;;;1.00;;
15679;SDS011;15488;48.114;11.532;2024-03-06T08:41:08;1.20;;;1.03;;
15679;SDS011;15488;48.114;11.532;2024-03-06T08:43:35;1.37;;;0.90;;
15679;SDS011;15488;48.114;11.532;2024-03-06T08:46:03;0.90;;;0.80;;
15679;SDS011;15488;48.114;11.532;2024-03-06T08:48:31;1.30;;;1.00;;
15679;SDS011;15488;48.114;11.532;2024-03-06T08:50:58;1.00;;;0.90;;
15679;SDS011;15488;48.114;11.532;2024-03-06T08:53:26;1.20;;;1.00;;
15679;SDS011;15488;48.114;11.532;2024-03-06T08:55:53;0.87;;;0.83;;
15679;SDS011;15488;48.114;11.532;2024-03-06T08:58:22;1.13;;;0.90;;
15679;SDS011;15488;48.114;11.532;2024-03-06T09:00:50;1.10;;;0.93;;
15679;SDS011;15488;48.114;11.532;2024-03-06T09:03:18;1.73;;;0.87;;
15679;SDS011;15488;48.114;11.532;2024-03-06T09:05:46;1.40;;;1.10;;
15679;SDS011;15488;48.114;11.532;2024-03-06T09:08:13;0.97;;;0.87;;
15679;SDS011;15488;48.114;11.532;2024-03-06T09:10:41;1.50;;;1.10;;
15679;SDS011;15488;48.114;11.532;2024-03-06T09:13:09;1.33;;;0.83;;
15679;SDS011;15488;48.114;11.532;2024-03-06T09:15:37;1.40;;;0.90;;
15679;SDS011;15488;48.114;11.532;2024-03-06T09:18:05;1.27;;;0.90;;
15679;SDS011;15488;48.114;11.532;2024-03-06T09:20:33;1.63;;;1.00;;
15679;SDS011;15488;48.114;11.532;2024-03-06T09:23:00;2.33;;;1.13;;
15679;SDS011;15488;48.114;11.532;2024-03-06T09:25:28;1.33;;;1.03;;
15679;SDS011;15488;48.114;11.532;2024-03-06T09:27:56;1.13;;;1.00;;
15679;SDS011;15488;48.114;11.532;2024-03-06T09:30:25;1.40;;;1.00;;
15679;SDS011;15488;48.114;11.532;2024-03-06T09:32:54;1.60;;;0.87;;
15679;SDS011;15488;48.114;11.532;2024-03-06T09:35:22;1.30;;;1.00;;
15679;SDS011;15488;48.114;11.532;2024-03-06T09:37:49;2.70;;;1.07;;
15679;SDS011;15488;48.114;11.532;2024-03-06T09:40:19;2.10;;;1.00;;
15679;SDS011;15488;48.114;11.532;2024-03-06T09:42:48;1.60;;;1.10;;
15679;SDS011;15488;48.114;11.532;2024-03-06T09:45:16;1.80;;;1.10;;
15679;SDS011;15488;48.114;11.532;2024-03-06T09:47:44;2.03;;;1.23;;
15679;SDS011;15488;48.114;11.532;2024-03-06T09:50:15;2.77;;;1.10;;
15679;SDS011;15488;48.114;11.532;2024-03-06T09:52:50;1.23;;;1.10;;
15679;SDS011;15488;48.114;11.532;2024-03-06T09:55:19;1.80;;;1.03;;
15679;SDS011;15488;48.114;11.532;2024-03-06T09:57:47;1.40;;;0.90;;
15679;SDS011;15488;48.114;11.532;2024-03-06T10:00:15;1.50;;;0.90;;
15679;SDS011;15488;48.114;11.532;2024-03-06T10:02:46;1.13;;;1.03;;
15679;SDS011;15488;48.114;11.532;2024-03-06T10:05:22;1.90;;;1.13;;
15679;SDS011;15488;48.114;11.532;2024-03-06T10:07:50;1.40;;;1.20;;
15679;SDS011;15488;48.114;11.532;2024-03-06T10:10:19;1.23;;;0.93;;
15679;SDS011;15488;48.114;11.532;2024-03-06T10:12:47;1.43;;;1.30;;
15679;SDS011;15488;48.114;11.532;2024-03-06T10:15:15;1.40;;;1.27;;
15679;SDS011;15488;48.114;11.532;2024-03-06T10:17:43;1.27;;;1.10;;
15679;SDS011;15488;48.114;11.532;2024-03-06T10:20:18;2.50;;;1.30;;
15679;SDS011;15488;48.114;11.532;2024-03-06T10:22:49;1.30;;;1.20;;
15679;SDS011;15488;48.114;11.532;2024-03-06T10:25:20;1.50;;;1.20;;
15679;SDS011;15488;48.114;11.532;2024-03-06T10:28:02;1.30;;;1.10;;
15679;SDS011;15488;48.114;11.532;2024-03-06T10:30:32;1.40;;;1.10;;
15679;SDS011;15488;48.114;11.532;2024-03-06T10:33:00;1.43;;;1.13;;
15679;SDS011;15488;48.114;11.532;2024-03-06T10:35:29;1.60;;;1.13;;
15679;SDS011;15488;48.114;11.532;2024-03-06T10:37:58;2.50;;;1.20;;
15679;SDS011;15488;48.114;11.532;2024-03-06T10:40:27;1.70;;;1.30;;
15679;SDS011;15488;48.114;11.532;2024-03-06T10:42:58;1.13;;;1.03;;
15679;SDS011;15488;48.114;11.532;2024-03-06T10:45:29;1.00;;;0.90;;
15679;SDS011;15488;48.114;11.532;2024-03-06T10:48:09;1.57;;;1.10;;
15679;SDS011;15488;48.114;11.532;2024-03-06T10:50:39;1.30;;;1.20;;
15679;SDS011;15488;48.114;11.532;2024-03-06T10:53:10;1.50;;;1.40;;
15679;SDS011;15488;48.114;11.532;2024-03-06T10:55:39;1.40;;;1.07;;
15679;SDS011;15488;48.114;11.532;2024-03-06T10:58:09;1.47;;;1.27;;
15679;SDS011;15488;48.114;11.532;2024-03-06T11:00:37;1.33;;;1.23;;
15679;SDS011;15488;48.114;11.532;2024-03-06T11:03:06;2.30;;;1.30;;
15679;SDS011;15488;48.114;11.532;2024-03-06T11:05:37;1.50;;;1.40;;
15679;SDS011;15488;48.114;11.532;2024-03-06T11:08:05;1.60;;;1.50;;
15679;SDS011;15488;48.114;11.532;2024-03-06T11:10:35;1.50;;;1.40;;
15679;SDS011;15488;48.114;11.532;2024-03-06T11:13:08;1.80;;;1.30;;
15679;SDS011;15488;48.114;11.532;2024-03-06T11:15:47;1.80;;;1.60;;
15679;SDS011;15488;48.114;11.532;2024-03-06T11:21:28;2.00;;;1.53;;
15679;SDS011;15488;48.114;11.532;2024-03-06T11:24:12;1.90;;;1.60;;
15679;SDS011;15488;48.114;11.532;2024-03-06T11:26:47;1.60;;;1.50;;
15679;SDS011;15488;48.114;11.532;2024-03-06T11:29:23;2.17;;;1.63;;
15679;SDS011;15488;48.114;11.532;2024-03-06T11:32:02;1.70;;;1.60;;
15679;SDS011;15488;48.114;11.532;2024-03-06T11:34:33;2.37;;;1.67;;
15679;SDS011;15488;48.114;11.532;2024-03-06T11:37:03;2.00;;;1.47;;
15679;SDS011;15488;48.114;11.532;2024-03-06T11:39:35;2.00;;;1.70;;
15679;SDS011;15488;48.114;11.532;2024-03-06T11:42:05;2.63;;;1.90;;
15679;SDS011;15488;48.114;11.532;2024-03-06T11:44:34;2.37;;;1.80;;
15679;SDS011;15488;48.114;11.532;2024-03-06T11:47:03;2.40;;;1.80;;
15679;SDS011;15488;48.114;11.532;2024-03-06T11:49:35;2.80;;;2.07;;
15679;SDS011;15488;48.114;11.532;2024-03-06T11:52:03;2.40;;;1.90;;
15679;SDS011;15488;48.114;11.532;2024-03-06T11:54:33;3.13;;;2.40;;
15679;SDS011;15488;48.114;11.532;2024-03-06T11:57:01;2.60;;;1.97;;
15679;SDS011;15488;48.114;11.532;2024-03-06T11:59:31;1.90;;;1.70;;
15679;SDS011;15488;48.114;11.532;2024-03-06T12:02:00;2.40;;;1.90;;
15679;SDS011;15488;48.114;11.532;2024-03-06T12:04:29;2.33;;;1.90;;
15679;SDS011;15488;48.114;11.532;2024-03-06T12:06:59;3.10;;;2.30;;
15679;SDS011;15488;48.114;11.532;2024-03-06T12:09:30;3.20;;;2.40;;
15679;SDS011;15488;48.114;11.532;2024-03-06T12:11:58;3.47;;;2.40;;
15679;SDS011;15488;48.114;11.532;2024-03-06T12:14:27;3.80;;;2.67;;
15679;SDS011;15488;48.114;11.532;2024-03-06T12:16:56;4.10;;;2.53;;
15679;SDS011;15488;48.114;11.532;2024-03-06T12:19:25;3.23;;;2.33;;
15679;SDS011;15488;48.114;11.532;2024-03-06T12:21:53;3.03;;;2.53;;
15679;SDS011;15488;48.114;11.532;2024-03-06T12:24:20;3.70;;;2.83;;
15679;SDS011;15488;48.114;11.532;2024-03-06T12:26:57;4.17;;;2.70;;
15679;SDS011;15488;48.114;11.532;2024-03-06T12:29:27;4.20;;;2.90;;
15679;SDS011;15488;48.114;11.532;2024-03-06T12:31:58;5.50;;;3.70;;
15679;SDS011;15488;48.114;11.532;2024-03-06T12:34:26;4.10;;;2.93;;
15679;SDS011;15488;48.114;11.532;2024-03-06T12:36:55;4.67;;;2.83;;
15679;SDS011;15488;48.114;11.532;2024-03-06T12:39:23;4.10;;;2.97;;
15679;SDS011;15488;48.114;11.532;2024-03-06T12:41:50;5.13;;;3.50;;
15679;SDS011;15488;48.114;11.532;2024-03-06T12:44:19;6.97;;;4.40;;
15679;SDS011;15488;48.114;11.532;2024-03-06T12:46:46;4.60;;;3.07;;
15679;SDS011;15488;48.114;11.532;2024-03-06T12:49:16;3.57;;;2.47;;
15679;SDS011;15488;48.114;11.532;2024-03-06T12:51:45;3.53;;;2.43;;
15679;SDS011;15488;48.114;11.532;2024-03-06T12:54:12;2.97;;;2.10;;
15679;SDS011;15488;48.114;11.532;2024-03-06T12:56:40;3.90;;;2.30;;
15679;SDS011;15488;48.114;11.532;2024-03-06T12:59:07;2.83;;;2.40;;
15679;SDS011;15488;48.114;11.532;2024-03-06T13:01:35;3.90;;;2.70;;
15679;SDS011;15488;48.114;11.532;2024-03-06T13:04:03;3.30;;;2.40;;
15679;SDS011;15488;48.114;11.532;2024-03-06T13:06:34;3.33;;;2.40;;
15679;SDS011;15488;48.114;11.532;2024-03-06T13:09:02;3.23;;;2.60;;
15679;SDS011;15488;48.114;11.532;2024-03-06T13:11:29;3.20;;;2.50;;
15679;SDS011;15488;48.114;11.532;2024-03-06T13:13:57;3.00;;;2.30;;
15679;SDS011;15488;48.114;11.532;2024-03-06T13:16:26;2.87;;;2.27;;
15679;SDS011;15488;48.114;11.532;2024-03-06T13:18:54;3.07;;;2.40;;
15679;SDS011;15488;48.114;11.532;2024-03-06T13:21:22;2.73;;;2.30;;
15679;SDS011;15488;48.114;11.532;2024-03-06T13:23:51;3.03;;;2.10;;
15679;SDS011;15488;48.114;11.532;2024-03-06T13:26:18;2.80;;;2.30;;
15679;SDS011;15488;48.114;11.532;2024-03-06T13:28:46;2.67;;;2.20;;
15679;SDS011;15488;48.114;11.532;2024-03-06T13:31:14;3.70;;;2.47;;
15679;SDS011;15488;48.114;11.532;2024-03-06T13:33:41;4.93;;;3.43;;
15679;SDS011;15488;48.114;11.532;2024-03-06T13:36:09;3.43;;;2.60;;
15679;SDS011;15488;48.114;11.532;2024-03-06T13:38:37;3.50;;;2.60;;
15679;SDS011;15488;48.114;11.532;2024-03-06T13:41:06;3.17;;;2.20;;
15679;SDS011;15488;48.114;11.532;2024-03-06T13:43:33;2.90;;;2.10;;
15679;SDS011;15488;48.114;11.532;2024-03-06T13:46:01;2.43;;;2.07;;
15679;SDS011;15488;48.114;11.532;2024-03-06T13:48:29;2.90;;;2.20;;
15679;SDS011;15488;48.114;11.532;2024-03-06T13:50:56;2.13;;;1.80;;
15679;SDS011;15488;48.114;11.532;2024-03-06T13:53:24;2.60;;;2.03;;
15679;SDS011;15488;48.114;11.532;2024-03-06T13:55:52;2.60;;;2.00;;
15679;SDS011;15488;48.114;11.532;2024-03-06T13:58:21;2.20;;;1.73;;
15679;SDS011;15488;48.114;11.532;2024-03-06T14:00:48;2.47;;;1.90;;
15679;SDS011;15488;48.114;11.532;2024-03-06T14:03:16;2.57;;;1.97;;
15679;SDS011;15488;48.114;11.532;2024-03-06T14:05:43;2.53;;;2.00;;
15679;SDS011;15488;48.114;11.532;2024-03-06T14:08:11;4.10;;;3.20;;
15679;SDS011;15488;48.114;11.532;2024-03-06T14:10:41;4.10;;;2.47;;
15679;SDS011;15488;48.114;11.532;2024-03-06T14:13:10;2.80;;;1.90;;
15679;SDS011;15488;48.114;11.532;2024-03-06T14:15:39;3.73;;;2.03;;
15679;SDS011;15488;48.114;11.532;2024-03-06T14:18:08;2.17;;;1.93;;
15679;SDS011;15488;48.114;11.532;2024-03-06T14:20:35;2.37;;;1.80;;
15679;SDS011;15488;48.114;11.532;2024-03-06T14:23:04;2.43;;;1.70;;
15679;SDS011;15488;48.114;11.532;2024-03-06T14:25:32;2.63;;;2.07;;
15679;SDS011;15488;48.114;11.532;2024-03-06T14:28:03;1.97;;;1.73;;
15679;SDS011;15488;48.114;11.532;2024-03-06T14:30:30;2.43;;;1.90;;
15679;SDS011;15488;48.114;11.532;2024-03-06T14:32:59;3.03;;;2.00;;
15679;SDS011;15488;48.114;11.532;2024-03-06T14:35:27;2.17;;;1.73;;
15679;SDS011;15488;48.114;11.532;2024-03-06T14:37:54;2.83;;;2.13;;
15679;SDS011;15488;48.114;11.532;2024-03-06T14:40:22;2.23;;;2.00;;
15679;SDS011;15488;48.114;11.532;2024-03-06T14:42:49;2.13;;;1.93;;
15679;SDS011;15488;48.114;11.532;2024-03-06T14:45:17;2.50;;;2.00;;